Terminal Aerodrome Forecast
Issued by NWS Albany, NY

Home | Current Version | Previous Version | Text Only | Print | Product List | Glossary On
Versions: 1 2 3 4 5 6 7 8 9 10 11 12 13 14 15 16 17 18 19 20 21 22
000
FTUS41 KALY 300521
TAFALB
TAF
KALB 300521Z 3006/3106 00000KT P6SM FEW150 SCT220
     FM301000 17004KT P6SM BKN070 BKN120
     FM301800 25005KT P6SM FEW060 BKN120
     FM310200 21003KT P6SM FEW250=

USA.gov is the U.S. government's official web portal to all federal, state and local government web resources and services.